sensor_id;sensor_type;location;lat;lon;timestamp;pressure;altitude;pressure_sealevel;temperature;humidity
81387;BME280;70842;50.744;7.114;2023-12-07T00:02:20;101493.84;;;5.62;69.68
81387;BME280;70842;50.744;7.114;2023-12-07T00:04:47;101485.19;;;5.41;70.01
81387;BME280;70842;50.744;7.114;2023-12-07T00:07:14;101486.88;;;5.61;70.01
81387;BME280;70842;50.744;7.114;2023-12-07T00:09:40;101489.16;;;5.68;69.68
81387;BME280;70842;50.744;7.114;2023-12-07T00:12:07;101485.03;;;5.63;69.93
81387;BME280;70842;50.744;7.114;2023-12-07T00:14:34;101489.06;;;5.88;69.67
81387;BME280;70842;50.744;7.114;2023-12-07T00:17:00;101488.78;;;5.76;69.96
81387;BME280;70842;50.744;7.114;2023-12-07T00:19:26;101481.63;;;5.61;70.62
81387;BME280;70842;50.744;7.114;2023-12-07T00:21:53;101483.31;;;5.80;69.99
81387;BME280;70842;50.744;7.114;2023-12-07T00:24:19;101482.19;;;5.86;69.99
81387;BME280;70842;50.744;7.114;2023-12-07T00:26:46;101487.22;;;5.90;69.87
81387;BME280;70842;50.744;7.114;2023-12-07T00:29:12;101493.41;;;5.89;69.79
81387;BME280;70842;50.744;7.114;2023-12-07T00:31:39;101498.28;;;5.97;70.12
81387;BME280;70842;50.744;7.114;2023-12-07T00:34:05;101492.19;;;5.96;69.93
81387;BME280;70842;50.744;7.114;2023-12-07T00:36:32;101493.38;;;6.08;69.77
81387;BME280;70842;50.744;7.114;2023-12-07T00:38:58;101494.84;;;6.13;69.70
81387;BME280;70842;50.744;7.114;2023-12-07T00:41:24;101491.25;;;5.97;70.01
81387;BME280;70842;50.744;7.114;2023-12-07T00:43:51;101497.09;;;6.04;69.91
81387;BME280;70842;50.744;7.114;2023-12-07T00:46:17;101489.53;;;5.96;70.23
81387;BME280;70842;50.744;7.114;2023-12-07T00:48:44;101507.25;;;5.93;70.67
81387;BME280;70842;50.744;7.114;2023-12-07T00:51:10;101511.88;;;5.88;70.53
81387;BME280;70842;50.744;7.114;2023-12-07T00:53:37;101502.78;;;5.76;71.43
81387;BME280;70842;50.744;7.114;2023-12-07T00:56:04;101513.00;;;5.82;71.26
81387;BME280;70842;50.744;7.114;2023-12-07T00:58:31;101508.47;;;5.86;71.45
81387;BME280;70842;50.744;7.114;2023-12-07T01:00:57;101504.78;;;5.71;71.88
81387;BME280;70842;50.744;7.114;2023-12-07T01:03:24;101503.94;;;5.89;71.49
81387;BME280;70842;50.744;7.114;2023-12-07T01:05:50;101512.56;;;6.10;70.73
81387;BME280;70842;50.744;7.114;2023-12-07T01:08:17;101512.19;;;6.35;69.62
81387;BME280;70842;50.744;7.114;2023-12-07T01:10:43;101516.53;;;6.18;70.37
81387;BME280;70842;50.744;7.114;2023-12-07T01:13:10;101514.75;;;6.36;69.29
81387;BME280;70842;50.744;7.114;2023-12-07T01:15:36;101514.28;;;6.45;69.46
81387;BME280;70842;50.744;7.114;2023-12-07T01:18:02;101507.91;;;6.32;69.58
81387;BME280;70842;50.744;7.114;2023-12-07T01:20:29;101512.13;;;6.19;70.21
81387;BME280;70842;50.744;7.114;2023-12-07T01:22:56;101516.09;;;6.09;70.52
81387;BME280;70842;50.744;7.114;2023-12-07T01:25:22;101513.81;;;6.20;69.97
81387;BME280;70842;50.744;7.114;2023-12-07T01:27:49;101510.25;;;6.21;69.58
81387;BME280;70842;50.744;7.114;2023-12-07T01:30:16;101512.00;;;6.03;70.61
81387;BME280;70842;50.744;7.114;2023-12-07T01:32:43;101505.53;;;6.10;69.81
81387;BME280;70842;50.744;7.114;2023-12-07T01:35:09;101503.75;;;6.28;69.77
81387;BME280;70842;50.744;7.114;2023-12-07T01:37:36;101512.34;;;6.32;69.51
81387;BME280;70842;50.744;7.114;2023-12-07T01:40:02;101518.91;;;6.06;70.72
81387;BME280;70842;50.744;7.114;2023-12-07T01:42:32;101514.44;;;6.25;69.95
81387;BME280;70842;50.744;7.114;2023-12-07T01:44:58;101514.34;;;6.26;70.05
81387;BME280;70842;50.744;7.114;2023-12-07T01:47:25;101515.31;;;6.07;70.13
81387;BME280;70842;50.744;7.114;2023-12-07T01:49:51;101524.50;;;6.17;70.47
81387;BME280;70842;50.744;7.114;2023-12-07T01:52:20;101516.28;;;6.06;70.52
81387;BME280;70842;50.744;7.114;2023-12-07T01:54:49;101528.19;;;5.96;70.54
81387;BME280;70842;50.744;7.114;2023-12-07T01:57:15;101522.41;;;5.88;71.17
81387;BME280;70842;50.744;7.114;2023-12-07T01:59:42;101527.44;;;5.92;71.53
81387;BME280;70842;50.744;7.114;2023-12-07T02:02:08;101528.75;;;5.84;71.23
81387;BME280;70842;50.744;7.114;2023-12-07T02:04:35;101522.66;;;5.82;71.56
81387;BME280;70842;50.744;7.114;2023-12-07T02:07:03;101541.47;;;5.56;71.85
81387;BME280;70842;50.744;7.114;2023-12-07T02:09:30;101536.63;;;5.46;72.44
81387;BME280;70842;50.744;7.114;2023-12-07T02:11:56;101529.59;;;5.47;72.55
81387;BME280;70842;50.744;7.114;2023-12-07T02:14:23;101527.88;;;5.65;71.98
81387;BME280;70842;50.744;7.114;2023-12-07T02:16:59;101532.16;;;5.86;71.46
81387;BME280;70842;50.744;7.114;2023-12-07T02:22:39;101534.91;;;5.64;71.97
81387;BME280;70842;50.744;7.114;2023-12-07T02:25:14;101541.25;;;5.79;71.71
81387;BME280;70842;50.744;7.114;2023-12-07T02:27:42;101544.38;;;5.68;71.79
81387;BME280;70842;50.744;7.114;2023-12-07T02:30:10;101540.47;;;5.77;71.61
81387;BME280;70842;50.744;7.114;2023-12-07T02:32:40;101533.91;;;5.67;71.70
81387;BME280;70842;50.744;7.114;2023-12-07T02:35:08;101554.53;;;5.94;70.98
81387;BME280;70842;50.744;7.114;2023-12-07T02:37:41;101546.34;;;5.82;71.14
81387;BME280;70842;50.744;7.114;2023-12-07T02:40:08;101537.91;;;5.38;71.97
81387;BME280;70842;50.744;7.114;2023-12-07T02:42:39;101539.47;;;5.61;71.88
81387;BME280;70842;50.744;7.114;2023-12-07T02:45:07;101551.53;;;5.65;71.71
81387;BME280;70842;50.744;7.114;2023-12-07T02:47:34;101550.19;;;5.56;72.21
81387;BME280;70842;50.744;7.114;2023-12-07T02:50:02;101553.66;;;5.57;71.88
81387;BME280;70842;50.744;7.114;2023-12-07T02:52:29;101553.09;;;5.69;71.71
81387;BME280;70842;50.744;7.114;2023-12-07T02:54:55;101545.28;;;5.48;72.07
81387;BME280;70842;50.744;7.114;2023-12-07T02:57:22;101544.72;;;5.61;72.21
81387;BME280;70842;50.744;7.114;2023-12-07T02:59:48;101534.41;;;5.75;71.52
81387;BME280;70842;50.744;7.114;2023-12-07T03:02:15;101535.72;;;5.85;71.05
81387;BME280;70842;50.744;7.114;2023-12-07T03:04:41;101534.03;;;6.01;70.39
81387;BME280;70842;50.744;7.114;2023-12-07T03:07:08;101520.97;;;5.99;70.33
81387;BME280;70842;50.744;7.114;2023-12-07T03:09:34;101527.66;;;6.06;70.12
81387;BME280;70842;50.744;7.114;2023-12-07T03:12:01;101530.94;;;5.93;70.43
81387;BME280;70842;50.744;7.114;2023-12-07T03:14:27;101532.91;;;6.06;70.09
81387;BME280;70842;50.744;7.114;2023-12-07T03:16:54;101526.38;;;5.78;70.70
81387;BME280;70842;50.744;7.114;2023-12-07T03:19:20;101526.28;;;5.79;70.34
81387;BME280;70842;50.744;7.114;2023-12-07T03:21:46;101531.78;;;5.56;70.57
81387;BME280;70842;50.744;7.114;2023-12-07T03:24:13;101520.19;;;5.79;70.44
81387;BME280;70842;50.744;7.114;2023-12-07T03:26:40;101525.81;;;5.90;70.21
81387;BME280;70842;50.744;7.114;2023-12-07T03:29:07;101543.16;;;5.57;71.29
81387;BME280;70842;50.744;7.114;2023-12-07T03:31:33;101540.50;;;5.75;71.00
81387;BME280;70842;50.744;7.114;2023-12-07T03:34:00;101538.03;;;5.53;71.89
81387;BME280;70842;50.744;7.114;2023-12-07T03:36:27;101531.38;;;5.46;72.28
81387;BME280;70842;50.744;7.114;2023-12-07T03:38:56;101538.59;;;5.41;71.69
81387;BME280;70842;50.744;7.114;2023-12-07T03:41:23;101531.38;;;5.28;72.54
81387;BME280;70842;50.744;7.114;2023-12-07T03:43:49;101532.63;;;5.57;71.94
81387;BME280;70842;50.744;7.114;2023-12-07T03:46:16;101532.94;;;5.50;71.96
81387;BME280;70842;50.744;7.114;2023-12-07T03:48:43;101517.22;;;5.68;70.96
81387;BME280;70842;50.744;7.114;2023-12-07T03:51:12;101512.97;;;5.84;70.72
81387;BME280;70842;50.744;7.114;2023-12-07T03:53:39;101527.44;;;5.74;70.88
81387;BME280;70842;50.744;7.114;2023-12-07T03:56:05;101529.13;;;5.75;70.73
81387;BME280;70842;50.744;7.114;2023-12-07T03:58:32;101530.22;;;5.52;70.90
81387;BME280;70842;50.744;7.114;2023-12-07T04:00:58;101526.16;;;5.26;71.31
81387;BME280;70842;50.744;7.114;2023-12-07T04:03:25;101527.19;;;5.42;70.43
81387;BME280;70842;50.744;7.114;2023-12-07T04:05:51;101532.78;;;5.53;70.98
81387;BME280;70842;50.744;7.114;2023-12-07T04:08:18;101540.13;;;5.47;70.71
81387;BME280;70842;50.744;7.114;2023-12-07T04:10:44;101543.03;;;5.60;70.87
81387;BME280;70842;50.744;7.114;2023-12-07T04:13:11;101543.78;;;5.43;71.10
81387;BME280;70842;50.744;7.114;2023-12-07T04:15:37;101542.59;;;5.50;71.20
81387;BME280;70842;50.744;7.114;2023-12-07T04:18:04;101539.66;;;5.56;71.17
81387;BME280;70842;50.744;7.114;2023-12-07T04:20:30;101537.03;;;5.75;70.89
81387;BME280;70842;50.744;7.114;2023-12-07T04:22:56;101531.38;;;5.84;70.80
81387;BME280;70842;50.744;7.114;2023-12-07T04:25:23;101530.81;;;6.13;70.15
81387;BME280;70842;50.744;7.114;2023-12-07T04:27:49;101521.09;;;6.15;69.85
81387;BME280;70842;50.744;7.114;2023-12-07T04:30:16;101530.59;;;6.35;68.76
81387;BME280;70842;50.744;7.114;2023-12-07T04:32:42;101520.16;;;6.16;69.11
81387;BME280;70842;50.744;7.114;2023-12-07T04:35:09;101516.16;;;5.90;69.27
81387;BME280;70842;50.744;7.114;2023-12-07T04:37:35;101524.91;;;5.91;69.53
81387;BME280;70842;50.744;7.114;2023-12-07T04:40:02;101531.06;;;5.90;69.88
81387;BME280;70842;50.744;7.114;2023-12-07T04:42:31;101526.03;;;6.04;69.48
81387;BME280;70842;50.744;7.114;2023-12-07T04:44:57;101530.50;;;6.02;69.34
81387;BME280;70842;50.744;7.114;2023-12-07T04:47:24;101533.34;;;5.79;69.62
81387;BME280;70842;50.744;7.114;2023-12-07T04:49:50;101535.41;;;5.72;70.38
81387;BME280;70842;50.744;7.114;2023-12-07T04:52:18;101539.31;;;5.64;70.87
81387;BME280;70842;50.744;7.114;2023-12-07T04:54:45;101546.56;;;5.77;70.19
81387;BME280;70842;50.744;7.114;2023-12-07T04:57:12;101550.84;;;5.61;70.88
81387;BME280;70842;50.744;7.114;2023-12-07T04:59:38;101550.56;;;5.48;71.49
81387;BME280;70842;50.744;7.114;2023-12-07T05:02:06;101554.66;;;5.35;72.24
81387;BME280;70842;50.744;7.114;2023-12-07T05:04:32;101561.97;;;5.47;72.24
81387;BME280;70842;50.744;7.114;2023-12-07T05:06:59;101561.06;;;5.48;72.05
81387;BME280;70842;50.744;7.114;2023-12-07T05:09:27;101567.59;;;5.40;72.28
81387;BME280;70842;50.744;7.114;2023-12-07T05:11:57;101567.09;;;5.32;71.77
81387;BME280;70842;50.744;7.114;2023-12-07T05:14:24;101567.50;;;5.41;72.27
81387;BME280;70842;50.744;7.114;2023-12-07T05:16:50;101555.81;;;5.48;71.68
81387;BME280;70842;50.744;7.114;2023-12-07T05:19:23;101566.63;;;5.22;71.85
81387;BME280;70842;50.744;7.114;2023-12-07T05:21:49;101565.41;;;5.11;72.06
81387;BME280;70842;50.744;7.114;2023-12-07T05:24:16;101566.53;;;5.05;72.56
81387;BME280;70842;50.744;7.114;2023-12-07T05:26:44;101570.25;;;5.20;72.05
81387;BME280;70842;50.744;7.114;2023-12-07T05:29:13;101566.97;;;5.15;71.56
81387;BME280;70842;50.744;7.114;2023-12-07T05:31:40;101568.28;;;5.25;71.53
81387;BME280;70842;50.744;7.114;2023-12-07T05:34:07;101580.63;;;5.23;71.30
81387;BME280;70842;50.744;7.114;2023-12-07T05:36:33;101580.53;;;5.44;70.69
81387;BME280;70842;50.744;7.114;2023-12-07T05:39:00;101583.47;;;5.37;70.65
81387;BME280;70842;50.744;7.114;2023-12-07T05:41:27;101574.72;;;5.18;70.96
81387;BME280;70842;50.744;7.114;2023-12-07T05:43:53;101580.31;;;5.10;70.56
81387;BME280;70842;50.744;7.114;2023-12-07T05:46:20;101578.88;;;5.03;71.13
81387;BME280;70842;50.744;7.114;2023-12-07T05:48:46;101580.25;;;5.12;70.76
81387;BME280;70842;50.744;7.114;2023-12-07T05:51:14;101585.19;;;5.19;70.50
81387;BME280;70842;50.744;7.114;2023-12-07T05:53:41;101588.59;;;5.21;70.02
81387;BME280;70842;50.744;7.114;2023-12-07T05:56:08;101598.03;;;5.05;70.24
81387;BME280;70842;50.744;7.114;2023-12-07T05:58:34;101594.91;;;4.97;70.08
81387;BME280;70842;50.744;7.114;2023-12-07T06:01:01;101600.50;;;4.90;70.69
81387;BME280;70842;50.744;7.114;2023-12-07T06:03:29;101596.75;;;4.95;70.62
81387;BME280;70842;50.744;7.114;2023-12-07T06:05:56;101582.09;;;4.69;71.44
81387;BME280;70842;50.744;7.114;2023-12-07T06:08:22;101597.31;;;4.61;71.39
81387;BME280;70842;50.744;7.114;2023-12-07T06:10:49;101599.16;;;4.38;71.92
81387;BME280;70842;50.744;7.114;2023-12-07T06:13:15;101584.13;;;4.63;71.49
81387;BME280;70842;50.744;7.114;2023-12-07T06:15:41;101593.19;;;4.56;71.56
81387;BME280;70842;50.744;7.114;2023-12-07T06:18:08;101592.94;;;4.62;71.11
81387;BME280;70842;50.744;7.114;2023-12-07T06:20:35;101587.28;;;4.71;71.33
81387;BME280;70842;50.744;7.114;2023-12-07T06:23:01;101586.31;;;4.52;71.59
81387;BME280;70842;50.744;7.114;2023-12-07T06:25:28;101581.38;;;4.66;71.46
81387;BME280;70842;50.744;7.114;2023-12-07T06:27:55;101579.72;;;4.63;71.31
81387;BME280;70842;50.744;7.114;2023-12-07T06:30:22;101578.16;;;4.59;71.37
81387;BME280;70842;50.744;7.114;2023-12-07T06:32:49;101573.75;;;4.60;71.05
81387;BME280;70842;50.744;7.114;2023-12-07T06:35:15;101574.06;;;4.52;71.44
81387;BME280;70842;50.744;7.114;2023-12-07T06:37:42;101566.38;;;4.48;71.17
81387;BME280;70842;50.744;7.114;2023-12-07T06:40:09;101566.69;;;4.62;70.85
81387;BME280;70842;50.744;7.114;2023-12-07T06:42:36;101565.56;;;4.26;71.69
81387;BME280;70842;50.744;7.114;2023-12-07T06:45:02;101557.47;;;4.10;71.45
81387;BME280;70842;50.744;7.114;2023-12-07T06:47:29;101565.41;;;4.30;71.62
81387;BME280;70842;50.744;7.114;2023-12-07T06:49:55;101569.34;;;4.19;71.50
81387;BME280;70842;50.744;7.114;2023-12-07T06:52:22;101562.44;;;4.16;71.42
81387;BME280;70842;50.744;7.114;2023-12-07T06:54:48;101565.56;;;4.04;71.84
81387;BME280;70842;50.744;7.114;2023-12-07T06:57:15;101562.72;;;4.10;72.05
81387;BME280;70842;50.744;7.114;2023-12-07T06:59:42;101569.34;;;4.19;71.57
81387;BME280;70842;50.744;7.114;2023-12-07T07:02:08;101553.38;;;4.25;71.59
81387;BME280;70842;50.744;7.114;2023-12-07T07:04:34;101558.84;;;4.40;70.88
81387;BME280;70842;50.744;7.114;2023-12-07T07:07:01;101564.09;;;4.19;70.71
81387;BME280;70842;50.744;7.114;2023-12-07T07:09:27;101560.00;;;4.12;70.71
81387;BME280;70842;50.744;7.114;2023-12-07T07:11:54;101571.72;;;3.37;73.56
81387;BME280;70842;50.744;7.114;2023-12-07T07:14:20;101560.75;;;4.15;71.66
81387;BME280;70842;50.744;7.114;2023-12-07T07:16:47;101551.81;;;3.77;73.27
81387;BME280;70842;50.744;7.114;2023-12-07T07:19:13;101562.16;;;4.24;72.63
81387;BME280;70842;50.744;7.114;2023-12-07T07:21:40;101561.13;;;4.28;71.32
81387;BME280;70842;50.744;7.114;2023-12-07T07:24:07;101563.00;;;4.24;70.90
81387;BME280;70842;50.744;7.114;2023-12-07T07:26:35;101563.69;;;4.08;71.12
81387;BME280;70842;50.744;7.114;2023-12-07T07:29:01;101556.59;;;4.10;71.14
81387;BME280;70842;50.744;7.114;2023-12-07T07:31:29;101555.25;;;4.21;70.79
81387;BME280;70842;50.744;7.114;2023-12-07T07:33:56;101559.97;;;4.55;69.33
81387;BME280;70842;50.744;7.114;2023-12-07T07:36:27;101565.59;;;4.46;69.44
81387;BME280;70842;50.744;7.114;2023-12-07T07:38:53;101557.47;;;4.52;69.05
81387;BME280;70842;50.744;7.114;2023-12-07T07:41:20;101562.69;;;4.32;nan
81387;BME280;70842;50.744;7.114;2023-12-07T07:43:46;101558.31;;;4.11;70.58
81387;BME280;70842;50.744;7.114;2023-12-07T07:46:14;101557.72;;;4.04;71.17
81387;BME280;70842;50.744;7.114;2023-12-07T07:48:40;101554.09;;;3.63;72.06
81387;BME280;70842;50.744;7.114;2023-12-07T07:51:07;101548.69;;;4.11;70.52
81387;BME280;70842;50.744;7.114;2023-12-07T07:53:33;101552.22;;;4.10;70.52
81387;BME280;70842;50.744;7.114;2023-12-07T07:56:00;101542.09;;;4.01;71.19
81387;BME280;70842;50.744;7.114;2023-12-07T07:58:27;101550.53;;;3.87;71.21
81387;BME280;70842;50.744;7.114;2023-12-07T08:00:53;101554.28;;;3.80;71.50
81387;BME280;70842;50.744;7.114;2023-12-07T08:03:20;101550.38;;;3.90;71.19
81387;BME280;70842;50.744;7.114;2023-12-07T08:05:46;101549.91;;;4.03;70.78
81387;BME280;70842;50.744;7.114;2023-12-07T08:08:13;101545.94;;;3.71;72.01
81387;BME280;70842;50.744;7.114;2023-12-07T08:10:39;101547.66;;;4.15;70.91
81387;BME280;70842;50.744;7.114;2023-12-07T08:13:21;101552.47;;;4.46;69.62
81387;BME280;70842;50.744;7.114;2023-12-07T08:15:48;101546.16;;;4.30;69.86
81387;BME280;70842;50.744;7.114;2023-12-07T08:18:14;101545.03;;;3.93;70.97
81387;BME280;70842;50.744;7.114;2023-12-07T08:20:41;101553.09;;;4.31;70.20
81387;BME280;70842;50.744;7.114;2023-12-07T08:23:07;101549.72;;;3.85;70.68
81387;BME280;70842;50.744;7.114;2023-12-07T08:25:34;101545.13;;;3.90;70.77
81387;BME280;70842;50.744;7.114;2023-12-07T08:28:00;101550.88;;;3.78;70.84
81387;BME280;70842;50.744;7.114;2023-12-07T08:30:26;101558.69;;;4.02;70.46
81387;BME280;70842;50.744;7.114;2023-12-07T08:32:53;101557.50;;;3.65;71.75
81387;BME280;70842;50.744;7.114;2023-12-07T08:35:20;101558.75;;;4.00;70.50
81387;BME280;70842;50.744;7.114;2023-12-07T08:37:46;101566.97;;;4.13;69.78
81387;BME280;70842;50.744;7.114;2023-12-07T08:40:12;101563.44;;;4.14;69.72
81387;BME280;70842;50.744;7.114;2023-12-07T08:42:45;101568.91;;;3.64;70.83
81387;BME280;70842;50.744;7.114;2023-12-07T08:45:14;101565.63;;;4.24;69.85
81387;BME280;70842;50.744;7.114;2023-12-07T08:47:41;101567.69;;;3.73;70.01
81387;BME280;70842;50.744;7.114;2023-12-07T08:50:08;101570.16;;;4.21;69.46
81387;BME280;70842;50.744;7.114;2023-12-07T08:52:35;101572.59;;;4.45;68.68
81387;BME280;70842;50.744;7.114;2023-12-07T08:55:12;101570.19;;;4.41;69.35
81387;BME280;70842;50.744;7.114;2023-12-07T08:57:42;101556.94;;;4.44;68.66
81387;BME280;70842;50.744;7.114;2023-12-07T09:00:08;101566.22;;;4.31;68.95
81387;BME280;70842;50.744;7.114;2023-12-07T09:02:35;101552.75;;;4.18;69.30
81387;BME280;70842;50.744;7.114;2023-12-07T09:05:13;101566.81;;;4.17;68.97
81387;BME280;70842;50.744;7.114;2023-12-07T09:07:39;101575.22;;;4.45;69.38
81387;BME280;70842;50.744;7.114;2023-12-07T09:10:07;101565.09;;;4.58;68.49
81387;BME280;70842;50.744;7.114;2023-12-07T09:12:35;101568.03;;;4.09;69.03
81387;BME280;70842;50.744;7.114;2023-12-07T09:15:06;101564.03;;;4.42;69.30
81387;BME280;70842;50.744;7.114;2023-12-07T09:17:38;101575.31;;;4.22;69.52
81387;BME280;70842;50.744;7.114;2023-12-07T09:20:08;101570.06;;;4.22;69.26
81387;BME280;70842;50.744;7.114;2023-12-07T09:22:45;101585.00;;;4.42;67.88
81387;BME280;70842;50.744;7.114;2023-12-07T09:25:12;101581.91;;;4.74;67.92
81387;BME280;70842;50.744;7.114;2023-12-07T09:27:39;101569.09;;;4.46;68.13
81387;BME280;70842;50.744;7.114;2023-12-07T09:30:07;101573.69;;;4.61;68.16
81387;BME280;70842;50.744;7.114;2023-12-07T09:32:37;101571.13;;;5.00;66.82
81387;BME280;70842;50.744;7.114;2023-12-07T09:35:05;101571.00;;;4.83;67.46
81387;BME280;70842;50.744;7.114;2023-12-07T09:37:36;101576.88;;;4.90;66.96
81387;BME280;70842;50.744;7.114;2023-12-07T09:40:03;101570.41;;;5.17;66.48
81387;BME280;70842;50.744;7.114;2023-12-07T09:42:31;101574.53;;;4.82;67.30
81387;BME280;70842;50.744;7.114;2023-12-07T09:45:03;101564.25;;;4.57;67.01
81387;BME280;70842;50.744;7.114;2023-12-07T09:47:30;101576.25;;;4.21;67.98
81387;BME280;70842;50.744;7.114;2023-12-07T09:50:04;101558.75;;;4.22;68.42
81387;BME280;70842;50.744;7.114;2023-12-07T09:52:31;101578.75;;;4.86;67.79
81387;BME280;70842;50.744;7.114;2023-12-07T09:54:59;101586.50;;;4.89;66.36
81387;BME280;70842;50.744;7.114;2023-12-07T09:57:27;101567.84;;;4.13;68.17
81387;BME280;70842;50.744;7.114;2023-12-07T09:59:56;101562.84;;;5.09;66.98
81387;BME280;70842;50.744;7.114;2023-12-07T10:02:24;101568.59;;;4.79;66.53
81387;BME280;70842;50.744;7.114;2023-12-07T10:05:09;101568.06;;;5.29;66.22
81387;BME280;70842;50.744;7.114;2023-12-07T10:07:40;101571.72;;;5.83;64.98
81387;BME280;70842;50.744;7.114;2023-12-07T10:10:06;101550.31;;;5.34;65.22
81387;BME280;70842;50.744;7.114;2023-12-07T10:12:34;101564.78;;;5.24;65.68
81387;BME280;70842;50.744;7.114;2023-12-07T10:15:11;101565.72;;;5.79;65.03
81387;BME280;70842;50.744;7.114;2023-12-07T10:17:53;101566.09;;;5.72;64.76
81387;BME280;70842;50.744;7.114;2023-12-07T10:20:21;101547.25;;;5.62;64.91
81387;BME280;70842;50.744;7.114;2023-12-07T10:23:09;101554.69;;;5.91;63.36
81387;BME280;70842;50.744;7.114;2023-12-07T10:25:37;101556.66;;;5.68;64.14
81387;BME280;70842;50.744;7.114;2023-12-07T10:28:04;101554.38;;;5.79;63.89
81387;BME280;70842;50.744;7.114;2023-12-07T10:30:34;101548.09;;;6.18;64.00
81387;BME280;70842;50.744;7.114;2023-12-07T10:33:04;101537.91;;;6.29;63.16
81387;BME280;70842;50.744;7.114;2023-12-07T10:35:38;101526.88;;;6.21;63.29
81387;BME280;70842;50.744;7.114;2023-12-07T10:38:05;101525.53;;;6.49;62.88
81387;BME280;70842;50.744;7.114;2023-12-07T10:40:31;101516.44;;;6.54;62.38
81387;BME280;70842;50.744;7.114;2023-12-07T10:42:58;101506.44;;;7.59;59.60
81387;BME280;70842;50.744;7.114;2023-12-07T10:45:26;101503.69;;;8.67;56.68
81387;BME280;70842;50.744;7.114;2023-12-07T10:47:56;101499.09;;;9.12;54.42
81387;BME280;70842;50.744;7.114;2023-12-07T10:50:31;101490.88;;;10.12;51.69
81387;BME280;70842;50.744;7.114;2023-12-07T10:53:01;101475.91;;;10.38;50.59
81387;BME280;70842;50.744;7.114;2023-12-07T10:55:33;101467.41;;;10.33;50.74
81387;BME280;70842;50.744;7.114;2023-12-07T10:58:05;101460.91;;;10.64;50.25
81387;BME280;70842;50.744;7.114;2023-12-07T11:00:33;101449.50;;;11.25;48.00
81387;BME280;70842;50.744;7.114;2023-12-07T11:03:11;101451.47;;;11.83;46.59
81387;BME280;70842;50.744;7.114;2023-12-07T11:05:38;101445.50;;;11.79;46.73
81387;BME280;70842;50.744;7.114;2023-12-07T11:08:08;101433.72;;;11.11;48.33
81387;BME280;70842;50.744;7.114;2023-12-07T11:10:44;101424.31;;;10.81;47.67
81387;BME280;70842;50.744;7.114;2023-12-07T11:13:17;101421.69;;;10.81;49.04
81387;BME280;70842;50.744;7.114;2023-12-07T11:15:45;101411.75;;;11.09;47.90
81387;BME280;70842;50.744;7.114;2023-12-07T11:18:11;101423.78;;;10.39;49.13
81387;BME280;70842;50.744;7.114;2023-12-07T11:20:42;101419.22;;;10.91;47.66
81387;BME280;70842;50.744;7.114;2023-12-07T11:23:10;101422.81;;;11.39;46.07
81387;BME280;70842;50.744;7.114;2023-12-07T11:25:37;101412.09;;;11.77;45.87
81387;BME280;70842;50.744;7.114;2023-12-07T11:28:05;101414.56;;;11.31;46.82
81387;BME280;70842;50.744;7.114;2023-12-07T11:30:34;101405.88;;;11.52;47.00
81387;BME280;70842;50.744;7.114;2023-12-07T11:33:05;101397.66;;;11.44;46.82
81387;BME280;70842;50.744;7.114;2023-12-07T11:35:32;101399.47;;;11.91;45.06
81387;BME280;70842;50.744;7.114;2023-12-07T11:40:40;101385.16;;;12.62;44.68
81387;BME280;70842;50.744;7.114;2023-12-07T11:43:07;101371.69;;;12.19;43.18
81387;BME280;70842;50.744;7.114;2023-12-07T11:45:47;101375.63;;;12.70;43.14
81387;BME280;70842;50.744;7.114;2023-12-07T11:48:17;101370.81;;;11.84;43.59
81387;BME280;70842;50.744;7.114;2023-12-07T11:51:08;101359.59;;;11.56;45.47
81387;BME280;70842;50.744;7.114;2023-12-07T11:53:36;101365.91;;;12.36;43.86
81387;BME280;70842;50.744;7.114;2023-12-07T11:56:04;101360.00;;;12.77;43.81
81387;BME280;70842;50.744;7.114;2023-12-07T11:58:33;101358.53;;;12.39;43.73
81387;BME280;70842;50.744;7.114;2023-12-07T12:01:05;101357.44;;;13.30;42.81
81387;BME280;70842;50.744;7.114;2023-12-07T12:03:31;101357.13;;;13.76;40.21
81387;BME280;70842;50.744;7.114;2023-12-07T12:05:58;101341.59;;;14.34;39.47
81387;BME280;70842;50.744;7.114;2023-12-07T12:08:25;101338.13;;;12.62;42.21
81387;BME280;70842;50.744;7.114;2023-12-07T12:10:52;101352.53;;;13.47;41.98
81387;BME280;70842;50.744;7.114;2023-12-07T12:13:19;101322.91;;;12.86;41.72
81387;BME280;70842;50.744;7.114;2023-12-07T12:15:46;101336.94;;;11.63;44.54
81387;BME280;70842;50.744;7.114;2023-12-07T12:18:12;101355.91;;;12.50;43.88
81387;BME280;70842;50.744;7.114;2023-12-07T12:20:40;101343.75;;;12.13;43.87
81387;BME280;70842;50.744;7.114;2023-12-07T12:23:07;101344.28;;;11.84;43.84
81387;BME280;70842;50.744;7.114;2023-12-07T12:25:33;101335.66;;;11.22;45.51
81387;BME280;70842;50.744;7.114;2023-12-07T12:28:04;101328.59;;;10.48;47.36
81387;BME280;70842;50.744;7.114;2023-12-07T12:30:32;101347.41;;;9.93;50.03
81387;BME280;70842;50.744;7.114;2023-12-07T12:32:59;101346.94;;;8.80;52.05
81387;BME280;70842;50.744;7.114;2023-12-07T12:35:26;101340.09;;;8.63;51.58
81387;BME280;70842;50.744;7.114;2023-12-07T12:37:53;101344.63;;;8.61;52.56
81387;BME280;70842;50.744;7.114;2023-12-07T12:40:23;101337.00;;;9.12;50.72
81387;BME280;70842;50.744;7.114;2023-12-07T12:42:51;101332.63;;;9.64;49.06
81387;BME280;70842;50.744;7.114;2023-12-07T12:45:22;101337.53;;;10.35;48.52
81387;BME280;70842;50.744;7.114;2023-12-07T12:47:49;101324.91;;;10.13;48.01
81387;BME280;70842;50.744;7.114;2023-12-07T12:50:42;101314.19;;;10.40;48.40
81387;BME280;70842;50.744;7.114;2023-12-07T12:53:09;101313.94;;;9.40;48.57
81387;BME280;70842;50.744;7.114;2023-12-07T12:55:40;101306.09;;;9.12;50.33
81387;BME280;70842;50.744;7.114;2023-12-07T12:58:09;101291.03;;;9.27;50.67
81387;BME280;70842;50.744;7.114;2023-12-07T13:00:39;101290.00;;;9.69;50.28
81387;BME280;70842;50.744;7.114;2023-12-07T13:03:07;101278.94;;;8.70;51.14
81387;BME280;70842;50.744;7.114;2023-12-07T13:05:33;101282.03;;;8.35;53.00
81387;BME280;70842;50.744;7.114;2023-12-07T13:08:01;101283.69;;;8.36;53.56
81387;BME280;70842;50.744;7.114;2023-12-07T13:10:40;101279.69;;;8.72;52.49